createdAt,value
2018-07-07T00:02:07.264Z,60.49
2018-07-07T00:04:37.440Z,59.11
2018-07-07T00:07:08.093Z,58.20
2018-07-07T00:09:38.005Z,57.95
2018-07-07T00:12:08.876Z,58.35
2018-07-07T00:14:39.567Z,57.94
2018-07-07T00:17:09.832Z,58.13
2018-07-07T00:19:45.128Z,57.02
2018-07-07T00:22:21.400Z,56.77
2018-07-07T00:24:55.232Z,57.53
2018-07-07T00:27:26.102Z,57.38
2018-07-07T00:29:57.317Z,57.48
2018-07-07T00:32:35.612Z,58.42
2018-07-07T00:35:07.558Z,56.25
2018-07-07T00:37:38.904Z,55.87
2018-07-07T00:40:13.349Z,55.99
2018-07-07T00:42:45.781Z,55.36
2018-07-07T00:48:06.064Z,57.11
2018-07-07T00:50:37.388Z,58.07
2018-07-07T00:53:08.269Z,58.74
2018-07-07T00:55:39.032Z,58.04
2018-07-07T01:00:56.826Z,57.37
2018-07-07T01:03:36.410Z,57.00
2018-07-07T01:06:09.282Z,57.32
2018-07-07T01:08:41.465Z,56.26
2018-07-07T01:11:17.831Z,56.76
2018-07-07T01:13:54.331Z,57.89
2018-07-07T01:16:24.849Z,57.55
2018-07-07T01:18:59.918Z,56.43
2018-07-07T01:21:36.145Z,56.41
2018-07-07T01:24:07.598Z,53.50
2018-07-07T01:26:37.776Z,55.29
2018-07-07T01:29:07.876Z,54.47
2018-07-07T01:31:38.516Z,54.93
2018-07-07T01:34:08.498Z,54.39
2018-07-07T01:36:38.482Z,55.04
2018-07-07T01:39:08.583Z,55.17
2018-07-07T01:41:38.586Z,54.01
2018-07-07T01:44:08.543Z,53.90
2018-07-07T01:46:38.546Z,53.62
2018-07-07T01:49:08.543Z,54.02
2018-07-07T01:51:38.609Z,54.09
2018-07-07T01:54:08.173Z,54.23
2018-07-07T01:56:38.347Z,54.15
2018-07-07T01:59:08.316Z,54.51
2018-07-07T02:01:39.063Z,54.21
2018-07-07T02:04:08.883Z,53.93
2018-07-07T02:06:38.821Z,54.57
2018-07-07T02:09:09.744Z,54.36
2018-07-07T02:11:43.680Z,54.80
2018-07-07T02:14:18.013Z,54.22
2018-07-07T02:16:52.980Z,54.61
2018-07-07T02:19:23.811Z,54.89
2018-07-07T02:22:00.161Z,54.39
2018-07-07T02:24:40.845Z,54.74
2018-07-07T02:27:15.983Z,54.48
2018-07-07T02:29:48.362Z,54.60
2018-07-07T02:32:18.596Z,54.81
2018-07-07T02:34:50.594Z,55.63
2018-07-07T02:37:23.445Z,55.65
2018-07-07T02:39:59.306Z,56.83
2018-07-07T02:42:34.408Z,55.84
2018-07-07T02:45:04.845Z,54.58
2018-07-07T02:47:35.528Z,54.71
2018-07-07T02:50:05.844Z,56.82
2018-07-07T02:52:36.499Z,56.15
2018-07-07T02:55:10.018Z,55.85
2018-07-07T02:57:42.998Z,55.38
2018-07-07T03:00:17.203Z,54.54
2018-07-07T03:02:47.475Z,55.46
2018-07-07T03:05:19.117Z,54.82
2018-07-07T03:07:49.130Z,54.78
2018-07-07T03:10:19.017Z,55.32
2018-07-07T03:12:48.950Z,56.38
2018-07-07T03:15:23.901Z,55.60
2018-07-07T03:17:59.188Z,56.67
2018-07-07T03:20:35.059Z,56.13
2018-07-07T03:23:06.031Z,57.07
2018-07-07T03:25:37.840Z,56.18
2018-07-07T03:28:08.720Z,55.28
2018-07-07T03:30:38.646Z,54.88
2018-07-07T03:33:08.584Z,55.30
2018-07-07T03:35:38.627Z,55.08
2018-07-07T03:38:08.746Z,55.38
2018-07-07T03:40:38.778Z,56.76
2018-07-07T03:43:08.809Z,57.20
2018-07-07T03:45:39.972Z,56.82
2018-07-07T03:48:09.543Z,56.94
2018-07-07T03:50:39.603Z,57.26
2018-07-07T03:53:10.841Z,55.21
2018-07-07T03:55:44.133Z,55.28
2018-07-07T03:58:16.809Z,55.39
2018-07-07T04:00:50.893Z,55.88
2018-07-07T04:03:24.071Z,56.14
2018-07-07T04:05:55.894Z,56.76
2018-07-07T04:08:26.630Z,58.94
2018-07-07T04:10:57.243Z,59.04
2018-07-07T04:13:28.076Z,58.46
2018-07-07T04:15:58.950Z,58.37
2018-07-07T04:18:34.878Z,57.94
2018-07-07T04:21:06.943Z,56.61
2018-07-07T04:23:37.397Z,55.00
2018-07-07T04:26:08.160Z,54.55
2018-07-07T04:28:38.335Z,55.13
2018-07-07T04:31:09.163Z,57.36
2018-07-07T04:33:39.049Z,57.43
2018-07-07T04:36:09.035Z,57.88
2018-07-07T04:38:39.656Z,56.59
2018-07-07T04:41:09.618Z,56.56
2018-07-07T04:43:39.533Z,58.35
2018-07-07T04:46:09.484Z,57.63
2018-07-07T04:48:39.398Z,59.31
2018-07-07T04:51:09.342Z,59.58
2018-07-07T04:53:39.247Z,59.12
2018-07-07T04:56:09.202Z,57.96
2018-07-07T04:58:39.271Z,56.53
2018-07-07T05:01:09.186Z,57.40
2018-07-07T05:03:39.231Z,58.55
2018-07-07T05:06:10.020Z,58.68
2018-07-07T05:08:40.207Z,57.32
2018-07-07T05:11:10.145Z,56.95
2018-07-07T05:13:39.980Z,56.40
2018-07-07T05:16:09.984Z,55.99
2018-07-07T05:18:39.927Z,57.65
2018-07-07T05:21:09.979Z,56.40
2018-07-07T05:23:39.980Z,55.68
2018-07-07T05:26:10.086Z,54.73
2018-07-07T05:28:39.968Z,53.28
2018-07-07T05:31:10.010Z,53.91
2018-07-07T05:33:40.071Z,54.20
2018-07-07T05:36:10.083Z,52.33
2018-07-07T05:38:40.073Z,51.96
2018-07-07T05:41:10.079Z,53.40
2018-07-07T05:43:41.145Z,53.04
2018-07-07T05:46:13.111Z,53.27
2018-07-07T05:48:43.763Z,53.44
2018-07-07T05:51:14.852Z,53.22
2018-07-07T05:53:47.771Z,53.03
2018-07-07T05:56:25.385Z,52.93
2018-07-07T05:58:55.972Z,53.06
2018-07-07T06:01:26.220Z,53.35
2018-07-07T06:03:56.275Z,53.22
2018-07-07T06:06:26.731Z,53.35
2018-07-07T06:08:57.195Z,54.08
2018-07-07T06:11:27.701Z,53.86
2018-07-07T06:13:58.259Z,54.20
2018-07-07T06:16:29.189Z,53.88
2018-07-07T06:19:00.263Z,53.77
2018-07-07T06:21:31.159Z,53.75
2018-07-07T06:24:01.862Z,53.80
2018-07-07T06:26:32.754Z,54.34
2018-07-07T06:29:02.839Z,54.44
2018-07-07T06:31:33.611Z,54.00
2018-07-07T06:34:04.944Z,53.80
2018-07-07T06:36:35.546Z,53.56
2018-07-07T06:39:07.042Z,54.03
2018-07-07T06:41:37.399Z,56.09
2018-07-07T06:44:08.856Z,53.20
2018-07-07T06:46:39.071Z,53.35
2018-07-07T06:49:09.703Z,52.58
2018-07-07T06:51:43.830Z,53.06
2018-07-07T06:54:23.858Z,52.23
2018-07-07T06:57:13.385Z,51.57
2018-07-07T06:59:45.213Z,52.49
2018-07-07T07:02:17.788Z,50.39
2018-07-07T07:04:55.704Z,50.93
2018-07-07T07:10:09.997Z,49.22
2018-07-07T07:12:41.553Z,49.64
2018-07-07T07:15:12.377Z,48.69
2018-07-07T07:17:45.613Z,48.68
2018-07-07T07:20:20.486Z,48.45
2018-07-07T07:22:52.698Z,48.37
2018-07-07T07:25:23.374Z,48.23
2018-07-07T07:27:54.358Z,48.70
2018-07-07T07:30:24.713Z,47.76
2018-07-07T07:32:55.722Z,47.33
2018-07-07T07:35:25.990Z,48.01
2018-07-07T07:37:57.837Z,46.44
2018-07-07T07:40:32.016Z,45.01
2018-07-07T07:43:03.453Z,46.04
2018-07-07T07:45:36.049Z,45.69
2018-07-07T07:48:08.723Z,44.76
2018-07-07T07:50:39.427Z,45.57
2018-07-07T07:53:10.289Z,45.91
2018-07-07T07:55:40.192Z,47.22
2018-07-07T07:58:14.258Z,46.36
2018-07-07T08:03:38.290Z,45.26
2018-07-07T08:06:09.553Z,46.30
2018-07-07T08:11:39.693Z,45.91
2018-07-07T08:14:11.819Z,45.68
2018-07-07T08:16:52.848Z,46.28
2018-07-07T08:20:05.976Z,45.82
2018-07-07T08:22:40.021Z,43.00
2018-07-07T08:25:10.807Z,43.04
2018-07-07T08:27:40.786Z,42.59
2018-07-07T08:30:10.600Z,42.31
2018-07-07T08:32:40.551Z,44.18
2018-07-07T08:35:11.198Z,44.11
2018-07-07T08:37:41.114Z,42.53
2018-07-07T08:40:13.707Z,43.84
2018-07-07T08:42:54.780Z,43.24
2018-07-07T08:49:08.864Z,43.07
2018-07-07T08:56:40.270Z,41.84
2018-07-07T08:59:10.650Z,42.53
2018-07-07T09:07:10.787Z,42.75
2018-07-07T09:09:41.233Z,42.31
2018-07-07T09:12:11.044Z,43.04
2018-07-07T09:14:40.931Z,44.29
2018-07-07T09:17:10.853Z,45.36
2018-07-07T09:24:40.974Z,43.42
2018-07-07T09:27:10.832Z,44.28
2018-07-07T09:29:41.266Z,44.28
2018-07-07T09:32:11.076Z,43.60
2018-07-07T09:34:41.155Z,43.21
2018-07-07T09:37:11.163Z,43.04
2018-07-07T09:39:41.123Z,43.03
2018-07-07T09:54:41.297Z,42.68
2018-07-07T09:57:11.116Z,42.30
2018-07-07T09:59:41.384Z,42.61
2018-07-07T10:02:11.363Z,42.30
2018-07-07T10:09:38.151Z,41.19
2018-07-07T10:12:11.271Z,40.81
2018-07-07T10:14:41.293Z,41.56
2018-07-07T10:17:11.257Z,40.51
2018-07-07T10:19:41.212Z,39.87
2018-07-07T10:22:11.337Z,41.09
2018-07-07T10:24:41.323Z,40.81
2018-07-07T10:27:11.303Z,40.17
2018-07-07T10:29:41.254Z,41.68
2018-07-07T10:32:11.268Z,40.47
2018-07-07T10:34:41.322Z,41.20
2018-07-07T10:37:11.251Z,41.60
2018-07-07T10:39:41.210Z,41.58
2018-07-07T10:42:11.275Z,41.29
2018-07-07T10:44:41.549Z,41.34
2018-07-07T11:27:37.834Z,39.91
2018-07-07T11:30:09.225Z,38.29
2018-07-07T11:32:50.398Z,38.54
2018-07-07T11:35:36.538Z,38.53
2018-07-07T11:55:51.678Z,36.82
2018-07-07T11:58:22.522Z,38.05
2018-07-07T12:39:48.668Z,38.05
2018-07-07T12:42:31.904Z,36.66
2018-07-07T12:48:29.262Z,37.18
2018-07-07T12:54:00.665Z,37.17
2018-07-07T13:27:40.587Z,34.42
2018-07-07T13:30:11.383Z,35.26
2018-07-07T13:32:41.602Z,35.92
2018-07-07T13:35:11.463Z,35.88
2018-07-07T13:37:41.337Z,35.74
2018-07-07T13:40:11.223Z,35.82
2018-07-07T13:48:09.144Z,35.20
2018-07-07T13:50:40.594Z,35.33
2018-07-07T13:53:11.666Z,34.95
2018-07-07T13:55:41.592Z,34.31
2018-07-07T14:22:48.433Z,34.98
2018-07-07T14:36:50.721Z,34.37
2018-07-07T14:49:19.153Z,33.43
2018-07-07T14:52:06.677Z,32.90
2018-07-07T15:14:35.417Z,33.99
2018-07-07T15:17:19.715Z,35.11
2018-07-07T16:01:16.575Z,34.63
2018-07-07T16:18:15.448Z,33.62
2018-07-07T16:20:48.272Z,33.75
2018-07-07T16:23:18.167Z,34.11
2018-07-07T16:25:48.215Z,33.71
2018-07-07T16:34:46.455Z,33.38
2018-07-07T16:44:19.048Z,34.06
2018-07-07T16:46:49.505Z,34.09
2018-07-07T17:07:59.226Z,35.67
2018-07-07T17:16:43.117Z,34.43
2018-07-07T17:22:42.712Z,35.78
2018-07-07T17:55:17.086Z,36.98
2018-07-07T17:57:58.471Z,38.67
2018-07-07T18:00:50.862Z,38.82
2018-07-07T18:03:22.960Z,38.57
2018-07-07T18:08:37.351Z,38.78
2018-07-07T18:11:11.635Z,39.66
2018-07-07T18:13:42.738Z,39.43
2018-07-07T18:16:13.174Z,38.84
2018-07-07T18:18:44.396Z,39.89
2018-07-07T18:21:21.593Z,40.86
2018-07-07T18:23:56.907Z,40.96
2018-07-07T18:26:36.945Z,40.13
2018-07-07T18:29:06.950Z,39.52
2018-07-07T18:31:36.851Z,39.50
2018-07-07T18:34:06.911Z,40.43
2018-07-07T18:39:36.720Z,40.92
2018-07-07T18:42:07.955Z,40.68
2018-07-07T18:44:37.569Z,40.08
2018-07-07T18:47:11.672Z,40.54
2018-07-07T18:49:48.667Z,40.56
2018-07-07T18:52:29.449Z,40.88
2018-07-07T18:58:03.641Z,42.23
2018-07-07T19:22:42.463Z,42.80
2018-07-07T19:25:21.849Z,43.58
2018-07-07T19:27:52.185Z,44.03
2018-07-07T19:30:23.723Z,44.49
2018-07-07T19:33:04.465Z,44.86
2018-07-07T19:35:45.988Z,45.13
2018-07-07T19:38:33.128Z,44.82
2018-07-07T19:47:55.011Z,45.90
2018-07-07T19:53:42.891Z,46.38
2018-07-07T19:56:23.349Z,45.40
2018-07-07T20:07:39.843Z,46.31
2018-07-07T20:22:41.695Z,47.21
2018-07-07T20:25:25.340Z,46.17
2018-07-07T20:31:11.043Z,46.96
2018-07-07T20:33:41.623Z,47.14
2018-07-07T20:36:20.477Z,47.06
2018-07-07T20:39:12.567Z,48.08
2018-07-07T20:42:44.965Z,47.62
2018-07-07T20:45:25.279Z,46.97
2018-07-07T20:48:00.748Z,47.78
2018-07-07T20:50:55.925Z,47.93
2018-07-07T20:59:55.438Z,47.94
2018-07-07T21:07:26.467Z,48.73
2018-07-07T21:10:24.921Z,47.76
2018-07-07T21:12:55.979Z,48.76
2018-07-07T21:15:31.506Z,49.42
2018-07-07T21:18:08.991Z,48.48
2018-07-07T21:20:40.338Z,48.57
2018-07-07T21:23:11.045Z,48.23
2018-07-07T21:25:42.131Z,49.35
2018-07-07T21:28:18.277Z,48.99
2018-07-07T21:33:51.340Z,50.01
2018-07-07T21:36:31.199Z,49.98
2018-07-07T21:44:02.825Z,49.76
2018-07-07T21:49:18.818Z,50.20
2018-07-07T21:51:52.564Z,50.12
2018-07-07T21:54:24.361Z,50.60
2018-07-07T21:56:59.107Z,51.04
2018-07-07T21:59:35.319Z,50.93
2018-07-07T22:02:14.257Z,50.89
2018-07-07T22:04:50.765Z,52.74
2018-07-07T22:07:26.198Z,51.86
2018-07-07T22:09:56.889Z,50.79
2018-07-07T22:12:37.325Z,51.08
2018-07-07T22:21:13.882Z,53.84
2018-07-07T22:23:51.144Z,53.70
2018-07-07T22:26:36.130Z,52.74
2018-07-07T22:29:17.346Z,53.41
2018-07-07T22:31:58.003Z,53.65
2018-07-07T22:34:45.842Z,53.88
2018-07-07T22:37:21.774Z,54.07
2018-07-07T22:39:53.253Z,54.85
2018-07-07T22:42:23.727Z,54.53
2018-07-07T22:45:06.772Z,54.24
2018-07-07T22:47:48.735Z,54.70
2018-07-07T22:50:22.252Z,54.04
2018-07-07T22:52:52.201Z,55.31
2018-07-07T22:55:22.412Z,55.70
2018-07-07T22:57:52.419Z,53.94
2018-07-07T23:00:22.503Z,53.69
2018-07-07T23:02:52.203Z,55.46
2018-07-07T23:05:22.191Z,54.88
2018-07-07T23:07:52.546Z,53.81
2018-07-07T23:10:22.539Z,54.14
2018-07-07T23:12:52.401Z,55.20
2018-07-07T23:15:22.354Z,56.70
2018-07-07T23:17:52.519Z,57.27
2018-07-07T23:20:25.097Z,57.56
2018-07-07T23:23:02.999Z,58.06
2018-07-07T23:25:40.498Z,56.72
2018-07-07T23:28:18.016Z,56.85
2018-07-07T23:30:50.883Z,57.15
2018-07-07T23:36:07.608Z,57.47
2018-07-07T23:38:40.283Z,56.56
2018-07-07T23:41:16.573Z,55.41
2018-07-07T23:43:47.002Z,57.20
2018-07-07T23:46:18.200Z,56.78
2018-07-07T23:48:49.273Z,58.44
2018-07-07T23:51:20.507Z,58.49
2018-07-07T23:53:51.665Z,58.80
2018-07-07T23:56:22.550Z,60.66
2018-07-07T23:58:57.517Z,59.75
